sensor_id;sensor_type;location;lat;lon;timestamp;P1;durP1;ratioP1;P2;durP2;ratioP2
15381;SDS011;7789;51.364;12.358;2023-07-31T00:03:23;5.95;;;1.60;;
15381;SDS011;7789;51.364;12.358;2023-07-31T00:08:30;5.47;;;1.40;;
15381;SDS011;7789;51.364;12.358;2023-07-31T00:13:34;6.07;;;1.30;;
15381;SDS011;7789;51.364;12.358;2023-07-31T00:18:38;2.85;;;1.30;;
15381;SDS011;7789;51.364;12.358;2023-07-31T00:23:43;2.85;;;1.70;;
15381;SDS011;7789;51.364;12.358;2023-07-31T00:28:48;2.83;;;1.25;;
15381;SDS011;7789;51.364;12.358;2023-07-31T00:33:51;2.58;;;1.27;;
15381;SDS011;7789;51.364;12.358;2023-07-31T00:38:56;3.22;;;1.55;;
15381;SDS011;7789;51.364;12.358;2023-07-31T00:44:00;3.72;;;1.52;;
15381;SDS011;7789;51.364;12.358;2023-07-31T00:49:04;5.15;;;1.30;;
15381;SDS011;7789;51.364;12.358;2023-07-31T00:54:12;7.03;;;1.67;;
15381;SDS011;7789;51.364;12.358;2023-07-31T00:59:16;3.75;;;1.60;;
15381;SDS011;7789;51.364;12.358;2023-07-31T01:04:21;3.67;;;1.70;;
15381;SDS011;7789;51.364;12.358;2023-07-31T01:09:32;3.47;;;1.25;;
15381;SDS011;7789;51.364;12.358;2023-07-31T01:14:40;6.38;;;1.70;;
15381;SDS011;7789;51.364;12.358;2023-07-31T01:19:53;5.35;;;1.30;;
15381;SDS011;7789;51.364;12.358;2023-07-31T01:25:05;5.10;;;1.40;;
15381;SDS011;7789;51.364;12.358;2023-07-31T01:30:22;3.70;;;1.40;;
15381;SDS011;7789;51.364;12.358;2023-07-31T01:35:28;2.65;;;1.40;;
15381;SDS011;7789;51.364;12.358;2023-07-31T01:40:33;2.65;;;1.30;;
15381;SDS011;7789;51.364;12.358;2023-07-31T01:45:39;5.75;;;1.70;;
15381;SDS011;7789;51.364;12.358;2023-07-31T01:50:43;6.65;;;1.50;;
15381;SDS011;7789;51.364;12.358;2023-07-31T01:55:46;2.63;;;1.27;;
15381;SDS011;7789;51.364;12.358;2023-07-31T02:00:51;3.33;;;1.35;;
15381;SDS011;7789;51.364;12.358;2023-07-31T02:05:55;4.03;;;1.17;;
15381;SDS011;7789;51.364;12.358;2023-07-31T02:10:59;2.67;;;1.40;;
15381;SDS011;7789;51.364;12.358;2023-07-31T02:16:05;4.93;;;1.38;;
15381;SDS011;7789;51.364;12.358;2023-07-31T02:21:08;5.22;;;1.63;;
15381;SDS011;7789;51.364;12.358;2023-07-31T02:26:15;4.15;;;1.90;;
15381;SDS011;7789;51.364;12.358;2023-07-31T02:31:20;3.35;;;1.50;;
15381;SDS011;7789;51.364;12.358;2023-07-31T02:36:24;3.38;;;1.63;;
15381;SDS011;7789;51.364;12.358;2023-07-31T02:41:28;6.55;;;1.45;;
15381;SDS011;7789;51.364;12.358;2023-07-31T02:46:35;3.15;;;1.40;;
15381;SDS011;7789;51.364;12.358;2023-07-31T02:51:40;4.20;;;1.73;;
15381;SDS011;7789;51.364;12.358;2023-07-31T02:56:45;5.18;;;1.80;;
15381;SDS011;7789;51.364;12.358;2023-07-31T03:01:50;2.90;;;1.63;;
15381;SDS011;7789;51.364;12.358;2023-07-31T03:06:54;4.70;;;1.60;;
15381;SDS011;7789;51.364;12.358;2023-07-31T03:11:57;3.28;;;1.65;;
15381;SDS011;7789;51.364;12.358;2023-07-31T03:17:03;3.17;;;1.75;;
15381;SDS011;7789;51.364;12.358;2023-07-31T03:22:06;4.88;;;1.60;;
15381;SDS011;7789;51.364;12.358;2023-07-31T03:27:11;3.70;;;1.60;;
15381;SDS011;7789;51.364;12.358;2023-07-31T03:32:17;5.68;;;1.60;;
15381;SDS011;7789;51.364;12.358;2023-07-31T03:37:21;4.47;;;1.42;;
15381;SDS011;7789;51.364;12.358;2023-07-31T03:42:28;4.25;;;1.20;;
15381;SDS011;7789;51.364;12.358;2023-07-31T03:47:33;2.95;;;1.50;;
15381;SDS011;7789;51.364;12.358;2023-07-31T03:52:37;5.80;;;1.98;;
15381;SDS011;7789;51.364;12.358;2023-07-31T03:57:40;6.63;;;2.00;;
15381;SDS011;7789;51.364;12.358;2023-07-31T04:02:45;4.32;;;1.98;;
15381;SDS011;7789;51.364;12.358;2023-07-31T04:07:51;3.42;;;1.63;;
15381;SDS011;7789;51.364;12.358;2023-07-31T04:12:55;4.45;;;1.80;;
15381;SDS011;7789;51.364;12.358;2023-07-31T04:18:00;3.20;;;1.52;;
15381;SDS011;7789;51.364;12.358;2023-07-31T04:23:04;3.78;;;1.70;;
15381;SDS011;7789;51.364;12.358;2023-07-31T04:28:08;4.82;;;2.22;;
15381;SDS011;7789;51.364;12.358;2023-07-31T04:33:14;9.07;;;1.95;;
15381;SDS011;7789;51.364;12.358;2023-07-31T04:38:19;3.80;;;1.80;;
15381;SDS011;7789;51.364;12.358;2023-07-31T04:43:23;5.20;;;1.70;;
15381;SDS011;7789;51.364;12.358;2023-07-31T04:48:29;4.25;;;1.98;;
15381;SDS011;7789;51.364;12.358;2023-07-31T04:53:32;4.90;;;1.75;;
15381;SDS011;7789;51.364;12.358;2023-07-31T04:58:36;2.65;;;1.30;;
15381;SDS011;7789;51.364;12.358;2023-07-31T05:03:41;2.63;;;1.70;;
15381;SDS011;7789;51.364;12.358;2023-07-31T05:08:45;2.83;;;1.70;;
15381;SDS011;7789;51.364;12.358;2023-07-31T05:13:53;4.00;;;1.70;;
15381;SDS011;7789;51.364;12.358;2023-07-31T05:19:05;3.25;;;2.00;;
15381;SDS011;7789;51.364;12.358;2023-07-31T05:24:10;3.20;;;1.88;;
15381;SDS011;7789;51.364;12.358;2023-07-31T05:29:17;3.70;;;1.77;;
15381;SDS011;7789;51.364;12.358;2023-07-31T05:34:25;3.08;;;1.98;;
15381;SDS011;7789;51.364;12.358;2023-07-31T05:39:33;6.05;;;2.00;;
15381;SDS011;7789;51.364;12.358;2023-07-31T05:44:37;3.72;;;1.90;;
15381;SDS011;7789;51.364;12.358;2023-07-31T05:49:42;3.45;;;2.00;;
15381;SDS011;7789;51.364;12.358;2023-07-31T05:54:48;3.65;;;1.98;;
15381;SDS011;7789;51.364;12.358;2023-07-31T05:59:52;3.95;;;1.85;;
15381;SDS011;7789;51.364;12.358;2023-07-31T06:04:58;2.88;;;1.70;;
15381;SDS011;7789;51.364;12.358;2023-07-31T06:10:06;5.28;;;2.17;;
15381;SDS011;7789;51.364;12.358;2023-07-31T06:15:11;4.05;;;1.95;;
15381;SDS011;7789;51.364;12.358;2023-07-31T06:20:23;5.65;;;2.42;;
15381;SDS011;7789;51.364;12.358;2023-07-31T06:25:26;4.00;;;2.10;;
15381;SDS011;7789;51.364;12.358;2023-07-31T06:30:30;3.80;;;2.20;;
15381;SDS011;7789;51.364;12.358;2023-07-31T06:35:36;4.40;;;1.80;;
15381;SDS011;7789;51.364;12.358;2023-07-31T06:40:39;2.90;;;1.50;;
15381;SDS011;7789;51.364;12.358;2023-07-31T06:45:43;4.63;;;2.30;;
15381;SDS011;7789;51.364;12.358;2023-07-31T06:50:50;3.38;;;1.73;;
15381;SDS011;7789;51.364;12.358;2023-07-31T06:55:59;3.88;;;1.85;;
15381;SDS011;7789;51.364;12.358;2023-07-31T07:01:02;4.70;;;1.90;;
15381;SDS011;7789;51.364;12.358;2023-07-31T07:06:08;2.95;;;1.75;;
15381;SDS011;7789;51.364;12.358;2023-07-31T07:11:11;5.00;;;2.17;;
15381;SDS011;7789;51.364;12.358;2023-07-31T07:16:15;5.95;;;1.92;;
15381;SDS011;7789;51.364;12.358;2023-07-31T07:21:20;4.68;;;2.00;;
15381;SDS011;7789;51.364;12.358;2023-07-31T07:26:23;4.25;;;1.85;;
15381;SDS011;7789;51.364;12.358;2023-07-31T07:31:28;3.42;;;1.60;;
15381;SDS011;7789;51.364;12.358;2023-07-31T07:36:33;2.90;;;1.58;;
15381;SDS011;7789;51.364;12.358;2023-07-31T07:41:36;3.72;;;2.30;;
15381;SDS011;7789;51.364;12.358;2023-07-31T07:46:42;3.95;;;2.30;;
15381;SDS011;7789;51.364;12.358;2023-07-31T07:51:48;3.85;;;1.90;;
15381;SDS011;7789;51.364;12.358;2023-07-31T07:56:52;4.85;;;2.13;;
15381;SDS011;7789;51.364;12.358;2023-07-31T08:01:55;4.85;;;1.80;;
15381;SDS011;7789;51.364;12.358;2023-07-31T08:07:00;3.33;;;1.73;;
15381;SDS011;7789;51.364;12.358;2023-07-31T08:12:06;4.22;;;2.13;;
15381;SDS011;7789;51.364;12.358;2023-07-31T08:17:11;7.07;;;2.00;;
15381;SDS011;7789;51.364;12.358;2023-07-31T08:22:17;4.22;;;1.95;;
15381;SDS011;7789;51.364;12.358;2023-07-31T08:27:20;3.88;;;2.10;;
15381;SDS011;7789;51.364;12.358;2023-07-31T08:32:24;3.25;;;1.77;;
15381;SDS011;7789;51.364;12.358;2023-07-31T08:37:30;3.78;;;1.90;;
15381;SDS011;7789;51.364;12.358;2023-07-31T08:42:42;3.92;;;2.17;;
15381;SDS011;7789;51.364;12.358;2023-07-31T08:47:48;4.07;;;2.00;;
15381;SDS011;7789;51.364;12.358;2023-07-31T08:52:55;4.75;;;1.92;;
15381;SDS011;7789;51.364;12.358;2023-07-31T08:57:59;4.93;;;1.90;;
15381;SDS011;7789;51.364;12.358;2023-07-31T09:03:07;7.78;;;2.00;;
15381;SDS011;7789;51.364;12.358;2023-07-31T09:08:17;3.10;;;1.90;;
15381;SDS011;7789;51.364;12.358;2023-07-31T09:13:22;2.88;;;1.73;;
15381;SDS011;7789;51.364;12.358;2023-07-31T09:18:25;3.33;;;1.77;;
15381;SDS011;7789;51.364;12.358;2023-07-31T09:23:45;5.03;;;2.15;;
15381;SDS011;7789;51.364;12.358;2023-07-31T09:28:55;2.53;;;1.67;;
15381;SDS011;7789;51.364;12.358;2023-07-31T09:34:02;3.83;;;1.75;;
15381;SDS011;7789;51.364;12.358;2023-07-31T09:39:10;2.25;;;1.60;;
15381;SDS011;7789;51.364;12.358;2023-07-31T09:44:15;2.92;;;2.03;;
15381;SDS011;7789;51.364;12.358;2023-07-31T09:49:21;3.17;;;1.92;;
15381;SDS011;7789;51.364;12.358;2023-07-31T09:54:30;4.47;;;1.90;;
15381;SDS011;7789;51.364;12.358;2023-07-31T09:59:34;3.22;;;2.15;;
15381;SDS011;7789;51.364;12.358;2023-07-31T10:04:39;4.90;;;2.10;;
15381;SDS011;7789;51.364;12.358;2023-07-31T10:10:00;4.18;;;2.20;;
15381;SDS011;7789;51.364;12.358;2023-07-31T10:15:05;3.95;;;2.03;;
15381;SDS011;7789;51.364;12.358;2023-07-31T10:20:12;4.43;;;2.13;;
15381;SDS011;7789;51.364;12.358;2023-07-31T10:25:20;7.28;;;2.40;;
15381;SDS011;7789;51.364;12.358;2023-07-31T10:30:26;2.92;;;2.08;;
15381;SDS011;7789;51.364;12.358;2023-07-31T10:35:34;3.55;;;1.92;;
15381;SDS011;7789;51.364;12.358;2023-07-31T10:40:43;2.75;;;1.85;;
15381;SDS011;7789;51.364;12.358;2023-07-31T10:45:47;4.65;;;2.53;;
15381;SDS011;7789;51.364;12.358;2023-07-31T10:50:52;3.38;;;2.13;;
15381;SDS011;7789;51.364;12.358;2023-07-31T10:56:01;4.47;;;2.30;;
15381;SDS011;7789;51.364;12.358;2023-07-31T11:01:06;2.58;;;2.00;;
15381;SDS011;7789;51.364;12.358;2023-07-31T11:06:10;3.13;;;2.30;;
15381;SDS011;7789;51.364;12.358;2023-07-31T11:11:21;2.65;;;1.88;;
15381;SDS011;7789;51.364;12.358;2023-07-31T11:16:25;4.05;;;2.08;;
15381;SDS011;7789;51.364;12.358;2023-07-31T11:21:34;2.67;;;1.77;;
15381;SDS011;7789;51.364;12.358;2023-07-31T11:26:52;3.10;;;1.95;;
15381;SDS011;7789;51.364;12.358;2023-07-31T11:31:57;4.53;;;2.25;;
15381;SDS011;7789;51.364;12.358;2023-07-31T11:37:01;2.40;;;1.65;;
15381;SDS011;7789;51.364;12.358;2023-07-31T11:42:06;3.40;;;1.77;;
15381;SDS011;7789;51.364;12.358;2023-07-31T11:47:10;3.10;;;2.00;;
15381;SDS011;7789;51.364;12.358;2023-07-31T11:52:15;2.63;;;1.77;;
15381;SDS011;7789;51.364;12.358;2023-07-31T11:57:23;3.47;;;2.10;;
15381;SDS011;7789;51.364;12.358;2023-07-31T12:02:29;4.25;;;1.98;;
15381;SDS011;7789;51.364;12.358;2023-07-31T12:07:45;3.10;;;2.03;;
15381;SDS011;7789;51.364;12.358;2023-07-31T12:13:02;4.32;;;2.50;;
15381;SDS011;7789;51.364;12.358;2023-07-31T12:18:10;3.85;;;2.60;;
15381;SDS011;7789;51.364;12.358;2023-07-31T12:23:22;3.30;;;2.10;;
15381;SDS011;7789;51.364;12.358;2023-07-31T12:28:36;3.45;;;2.13;;
15381;SDS011;7789;51.364;12.358;2023-07-31T12:33:42;4.57;;;2.30;;
15381;SDS011;7789;51.364;12.358;2023-07-31T12:38:45;3.22;;;2.60;;
15381;SDS011;7789;51.364;12.358;2023-07-31T12:43:51;4.97;;;2.63;;
15381;SDS011;7789;51.364;12.358;2023-07-31T12:48:56;3.65;;;2.55;;
15381;SDS011;7789;51.364;12.358;2023-07-31T12:54:03;3.70;;;2.10;;
15381;SDS011;7789;51.364;12.358;2023-07-31T12:59:10;4.72;;;2.40;;
15381;SDS011;7789;51.364;12.358;2023-07-31T13:04:17;5.03;;;2.72;;
15381;SDS011;7789;51.364;12.358;2023-07-31T13:09:21;3.20;;;2.25;;
15381;SDS011;7789;51.364;12.358;2023-07-31T13:14:28;2.83;;;2.25;;
15381;SDS011;7789;51.364;12.358;2023-07-31T13:19:32;2.38;;;1.83;;
15381;SDS011;7789;51.364;12.358;2023-07-31T13:24:36;4.03;;;1.70;;
15381;SDS011;7789;51.364;12.358;2023-07-31T13:29:41;3.60;;;2.40;;
15381;SDS011;7789;51.364;12.358;2023-07-31T13:34:46;5.88;;;2.10;;
15381;SDS011;7789;51.364;12.358;2023-07-31T13:39:53;7.22;;;1.95;;
15381;SDS011;7789;51.364;12.358;2023-07-31T13:45:03;4.05;;;1.83;;
15381;SDS011;7789;51.364;12.358;2023-07-31T13:50:10;4.13;;;2.05;;
15381;SDS011;7789;51.364;12.358;2023-07-31T13:55:17;5.20;;;2.25;;
15381;SDS011;7789;51.364;12.358;2023-07-31T14:00:27;3.92;;;1.75;;
15381;SDS011;7789;51.364;12.358;2023-07-31T14:05:32;2.63;;;1.58;;
15381;SDS011;7789;51.364;12.358;2023-07-31T14:10:38;2.88;;;1.98;;
15381;SDS011;7789;51.364;12.358;2023-07-31T14:15:47;2.20;;;1.90;;
15381;SDS011;7789;51.364;12.358;2023-07-31T14:20:52;4.18;;;2.10;;
15381;SDS011;7789;51.364;12.358;2023-07-31T14:25:56;3.28;;;2.00;;
15381;SDS011;7789;51.364;12.358;2023-07-31T14:31:04;3.85;;;1.80;;
15381;SDS011;7789;51.364;12.358;2023-07-31T14:36:08;5.95;;;1.90;;
15381;SDS011;7789;51.364;12.358;2023-07-31T14:41:12;2.50;;;1.70;;
15381;SDS011;7789;51.364;12.358;2023-07-31T14:46:18;3.35;;;1.92;;
15381;SDS011;7789;51.364;12.358;2023-07-31T14:51:35;3.28;;;1.33;;
15381;SDS011;7789;51.364;12.358;2023-07-31T14:56:39;4.40;;;1.95;;
15381;SDS011;7789;51.364;12.358;2023-07-31T15:01:47;3.63;;;1.77;;
15381;SDS011;7789;51.364;12.358;2023-07-31T15:06:53;2.28;;;1.52;;
15381;SDS011;7789;51.364;12.358;2023-07-31T15:11:58;3.00;;;1.65;;
15381;SDS011;7789;51.364;12.358;2023-07-31T15:17:04;2.72;;;1.65;;
15381;SDS011;7789;51.364;12.358;2023-07-31T15:22:15;3.72;;;1.90;;
15381;SDS011;7789;51.364;12.358;2023-07-31T15:27:19;2.40;;;1.63;;
15381;SDS011;7789;51.364;12.358;2023-07-31T15:32:28;3.90;;;1.70;;
15381;SDS011;7789;51.364;12.358;2023-07-31T15:37:35;3.00;;;1.52;;
15381;SDS011;7789;51.364;12.358;2023-07-31T15:42:40;2.78;;;1.80;;
15381;SDS011;7789;51.364;12.358;2023-07-31T15:47:48;2.67;;;1.90;;
15381;SDS011;7789;51.364;12.358;2023-07-31T15:52:59;2.60;;;1.92;;
15381;SDS011;7789;51.364;12.358;2023-07-31T15:58:09;3.33;;;2.55;;
15381;SDS011;7789;51.364;12.358;2023-07-31T16:03:17;3.08;;;2.00;;
15381;SDS011;7789;51.364;12.358;2023-07-31T16:08:23;3.35;;;2.22;;
15381;SDS011;7789;51.364;12.358;2023-07-31T16:13:26;3.78;;;2.30;;
15381;SDS011;7789;51.364;12.358;2023-07-31T16:18:32;2.50;;;2.00;;
15381;SDS011;7789;51.364;12.358;2023-07-31T16:23:35;4.47;;;2.70;;
15381;SDS011;7789;51.364;12.358;2023-07-31T16:28:39;4.85;;;2.15;;
15381;SDS011;7789;51.364;12.358;2023-07-31T16:33:44;6.18;;;2.70;;
15381;SDS011;7789;51.364;12.358;2023-07-31T16:38:48;5.88;;;2.50;;
15381;SDS011;7789;51.364;12.358;2023-07-31T16:43:54;5.13;;;2.33;;
15381;SDS011;7789;51.364;12.358;2023-07-31T16:49:07;4.55;;;2.60;;
15381;SDS011;7789;51.364;12.358;2023-07-31T16:54:13;5.47;;;2.60;;
15381;SDS011;7789;51.364;12.358;2023-07-31T16:59:18;6.40;;;2.53;;
15381;SDS011;7789;51.364;12.358;2023-07-31T17:04:24;5.88;;;2.60;;
15381;SDS011;7789;51.364;12.358;2023-07-31T17:09:28;5.60;;;2.88;;
15381;SDS011;7789;51.364;12.358;2023-07-31T17:14:38;4.90;;;2.45;;
15381;SDS011;7789;51.364;12.358;2023-07-31T17:19:44;6.68;;;2.30;;
15381;SDS011;7789;51.364;12.358;2023-07-31T17:24:49;4.57;;;2.70;;
15381;SDS011;7789;51.364;12.358;2023-07-31T17:29:55;4.75;;;2.58;;
15381;SDS011;7789;51.364;12.358;2023-07-31T17:35:02;3.17;;;2.40;;
15381;SDS011;7789;51.364;12.358;2023-07-31T17:40:10;5.10;;;3.05;;
15381;SDS011;7789;51.364;12.358;2023-07-31T17:45:17;5.18;;;2.85;;
15381;SDS011;7789;51.364;12.358;2023-07-31T17:50:25;5.68;;;2.70;;
15381;SDS011;7789;51.364;12.358;2023-07-31T17:55:29;5.57;;;2.30;;
15381;SDS011;7789;51.364;12.358;2023-07-31T18:00:39;4.22;;;2.60;;
15381;SDS011;7789;51.364;12.358;2023-07-31T18:05:46;3.70;;;2.50;;
15381;SDS011;7789;51.364;12.358;2023-07-31T18:10:58;3.63;;;2.45;;
15381;SDS011;7789;51.364;12.358;2023-07-31T18:16:02;3.40;;;2.35;;
15381;SDS011;7789;51.364;12.358;2023-07-31T18:21:08;3.58;;;2.25;;
15381;SDS011;7789;51.364;12.358;2023-07-31T18:26:20;4.75;;;2.65;;
15381;SDS011;7789;51.364;12.358;2023-07-31T18:31:23;4.90;;;2.55;;
15381;SDS011;7789;51.364;12.358;2023-07-31T18:36:30;5.90;;;2.90;;
15381;SDS011;7789;51.364;12.358;2023-07-31T18:41:36;4.18;;;2.88;;
15381;SDS011;7789;51.364;12.358;2023-07-31T18:46:41;3.72;;;2.60;;
15381;SDS011;7789;51.364;12.358;2023-07-31T18:51:49;5.13;;;2.65;;
15381;SDS011;7789;51.364;12.358;2023-07-31T18:56:58;3.63;;;2.88;;
15381;SDS011;7789;51.364;12.358;2023-07-31T19:02:03;4.55;;;2.40;;
15381;SDS011;7789;51.364;12.358;2023-07-31T19:07:11;5.82;;;2.80;;
15381;SDS011;7789;51.364;12.358;2023-07-31T19:12:16;5.70;;;2.38;;
15381;SDS011;7789;51.364;12.358;2023-07-31T19:17:22;4.57;;;2.78;;
15381;SDS011;7789;51.364;12.358;2023-07-31T19:22:29;7.82;;;2.88;;
15381;SDS011;7789;51.364;12.358;2023-07-31T19:27:34;5.15;;;2.40;;
15381;SDS011;7789;51.364;12.358;2023-07-31T19:32:38;3.97;;;2.38;;
15381;SDS011;7789;51.364;12.358;2023-07-31T19:37:43;6.22;;;2.80;;
15381;SDS011;7789;51.364;12.358;2023-07-31T19:42:48;5.20;;;2.60;;
15381;SDS011;7789;51.364;12.358;2023-07-31T19:47:52;6.32;;;2.85;;
15381;SDS011;7789;51.364;12.358;2023-07-31T19:52:58;5.70;;;2.88;;
15381;SDS011;7789;51.364;12.358;2023-07-31T19:58:02;7.72;;;2.78;;
15381;SDS011;7789;51.364;12.358;2023-07-31T20:03:07;5.88;;;2.60;;
15381;SDS011;7789;51.364;12.358;2023-07-31T20:08:12;5.30;;;2.53;;
15381;SDS011;7789;51.364;12.358;2023-07-31T20:13:16;4.45;;;2.33;;
15381;SDS011;7789;51.364;12.358;2023-07-31T20:18:20;7.55;;;2.85;;
15381;SDS011;7789;51.364;12.358;2023-07-31T20:23:25;5.72;;;2.30;;
15381;SDS011;7789;51.364;12.358;2023-07-31T20:28:44;6.15;;;2.53;;
15381;SDS011;7789;51.364;12.358;2023-07-31T20:33:48;7.63;;;2.55;;
15381;SDS011;7789;51.364;12.358;2023-07-31T20:38:54;3.60;;;2.42;;
15381;SDS011;7789;51.364;12.358;2023-07-31T20:43:57;4.60;;;2.42;;
15381;SDS011;7789;51.364;12.358;2023-07-31T20:49:10;5.68;;;3.45;;
15381;SDS011;7789;51.364;12.358;2023-07-31T20:54:15;3.38;;;2.28;;
15381;SDS011;7789;51.364;12.358;2023-07-31T20:59:21;5.20;;;2.33;;
15381;SDS011;7789;51.364;12.358;2023-07-31T21:04:25;4.05;;;2.00;;
15381;SDS011;7789;51.364;12.358;2023-07-31T21:09:30;5.38;;;2.80;;
15381;SDS011;7789;51.364;12.358;2023-07-31T21:14:34;5.47;;;2.30;;
15381;SDS011;7789;51.364;12.358;2023-07-31T21:19:37;5.13;;;2.10;;
15381;SDS011;7789;51.364;12.358;2023-07-31T21:24:46;4.28;;;1.95;;
15381;SDS011;7789;51.364;12.358;2023-07-31T21:29:49;2.92;;;2.28;;
15381;SDS011;7789;51.364;12.358;2023-07-31T21:34:55;2.28;;;1.65;;
15381;SDS011;7789;51.364;12.358;2023-07-31T21:40:01;3.53;;;2.30;;
15381;SDS011;7789;51.364;12.358;2023-07-31T21:45:06;5.10;;;2.25;;
15381;SDS011;7789;51.364;12.358;2023-07-31T21:50:11;3.40;;;2.38;;
15381;SDS011;7789;51.364;12.358;2023-07-31T21:55:16;2.40;;;1.98;;
15381;SDS011;7789;51.364;12.358;2023-07-31T22:00:20;4.43;;;2.28;;
15381;SDS011;7789;51.364;12.358;2023-07-31T22:05:24;5.65;;;2.47;;
15381;SDS011;7789;51.364;12.358;2023-07-31T22:10:29;2.90;;;1.92;;
15381;SDS011;7789;51.364;12.358;2023-07-31T22:15:32;4.63;;;2.30;;
15381;SDS011;7789;51.364;12.358;2023-07-31T22:20:37;3.65;;;2.50;;
15381;SDS011;7789;51.364;12.358;2023-07-31T22:25:41;2.50;;;1.98;;
15381;SDS011;7789;51.364;12.358;2023-07-31T22:30:45;3.78;;;2.22;;
15381;SDS011;7789;51.364;12.358;2023-07-31T22:35:49;3.65;;;2.40;;
15381;SDS011;7789;51.364;12.358;2023-07-31T22:40:54;3.45;;;2.45;;
15381;SDS011;7789;51.364;12.358;2023-07-31T22:45:58;4.45;;;2.53;;
15381;SDS011;7789;51.364;12.358;2023-07-31T22:51:02;3.92;;;2.75;;
15381;SDS011;7789;51.364;12.358;2023-07-31T22:56:09;3.45;;;2.53;;
15381;SDS011;7789;51.364;12.358;2023-07-31T23:01:13;2.95;;;2.15;;
15381;SDS011;7789;51.364;12.358;2023-07-31T23:06:19;6.10;;;2.80;;
15381;SDS011;7789;51.364;12.358;2023-07-31T23:11:24;5.18;;;3.13;;
15381;SDS011;7789;51.364;12.358;2023-07-31T23:16:28;5.55;;;2.70;;
15381;SDS011;7789;51.364;12.358;2023-07-31T23:21:32;4.90;;;3.03;;
15381;SDS011;7789;51.364;12.358;2023-07-31T23:26:37;4.53;;;2.72;;
15381;SDS011;7789;51.364;12.358;2023-07-31T23:31:41;9.27;;;3.08;;
15381;SDS011;7789;51.364;12.358;2023-07-31T23:36:46;3.58;;;2.53;;
15381;SDS011;7789;51.364;12.358;2023-07-31T23:41:51;5.43;;;2.65;;
15381;SDS011;7789;51.364;12.358;2023-07-31T23:46:55;4.85;;;2.60;;
15381;SDS011;7789;51.364;12.358;2023-07-31T23:51:58;4.63;;;3.10;;
15381;SDS011;7789;51.364;12.358;2023-07-31T23:57:03;6.43;;;2.85;;
